sensor_id;sensor_type;location;lat;lon;timestamp;P1;durP1;ratioP1;P2;durP2;ratioP2
15706;SDS011;7953;54.302;10.128;2024-03-02T00:00:49;32.93;;;22.87;;
15706;SDS011;7953;54.302;10.128;2024-03-02T00:03:17;37.50;;;23.83;;
15706;SDS011;7953;54.302;10.128;2024-03-02T00:05:44;34.60;;;22.73;;
15706;SDS011;7953;54.302;10.128;2024-03-02T00:08:16;36.87;;;23.40;;
15706;SDS011;7953;54.302;10.128;2024-03-02T00:10:50;38.83;;;23.33;;
15706;SDS011;7953;54.302;10.128;2024-03-02T00:13:18;39.57;;;24.60;;
15706;SDS011;7953;54.302;10.128;2024-03-02T00:15:48;37.80;;;23.70;;
15706;SDS011;7953;54.302;10.128;2024-03-02T00:18:18;38.23;;;22.73;;
15706;SDS011;7953;54.302;10.128;2024-03-02T00:20:46;36.77;;;24.43;;
15706;SDS011;7953;54.302;10.128;2024-03-02T00:23:14;31.47;;;22.43;;
15706;SDS011;7953;54.302;10.128;2024-03-02T00:25:43;38.93;;;25.10;;
15706;SDS011;7953;54.302;10.128;2024-03-02T00:28:13;36.43;;;24.33;;
15706;SDS011;7953;54.302;10.128;2024-03-02T00:30:54;38.73;;;24.47;;
15706;SDS011;7953;54.302;10.128;2024-03-02T00:33:23;38.07;;;23.87;;
15706;SDS011;7953;54.302;10.128;2024-03-02T00:35:52;36.63;;;22.50;;
15706;SDS011;7953;54.302;10.128;2024-03-02T00:38:21;37.80;;;23.77;;
15706;SDS011;7953;54.302;10.128;2024-03-02T00:40:49;37.93;;;23.43;;
15706;SDS011;7953;54.302;10.128;2024-03-02T00:46:12;38.87;;;24.97;;
15706;SDS011;7953;54.302;10.128;2024-03-02T00:48:47;36.93;;;23.93;;
15706;SDS011;7953;54.302;10.128;2024-03-02T00:51:17;35.53;;;22.97;;
15706;SDS011;7953;54.302;10.128;2024-03-02T00:53:45;38.07;;;25.03;;
15706;SDS011;7953;54.302;10.128;2024-03-02T00:56:12;35.33;;;24.67;;
15706;SDS011;7953;54.302;10.128;2024-03-02T00:58:40;42.03;;;24.43;;
15706;SDS011;7953;54.302;10.128;2024-03-02T01:01:06;38.30;;;23.53;;
15706;SDS011;7953;54.302;10.128;2024-03-02T01:03:34;41.23;;;24.20;;
15706;SDS011;7953;54.302;10.128;2024-03-02T01:06:02;37.73;;;23.63;;
15706;SDS011;7953;54.302;10.128;2024-03-02T01:08:29;36.73;;;25.50;;
15706;SDS011;7953;54.302;10.128;2024-03-02T01:10:58;38.27;;;24.33;;
15706;SDS011;7953;54.302;10.128;2024-03-02T01:13:25;41.40;;;24.83;;
15706;SDS011;7953;54.302;10.128;2024-03-02T01:15:52;39.90;;;25.43;;
15706;SDS011;7953;54.302;10.128;2024-03-02T01:18:19;39.60;;;26.20;;
15706;SDS011;7953;54.302;10.128;2024-03-02T01:20:47;39.93;;;25.67;;
15706;SDS011;7953;54.302;10.128;2024-03-02T01:23:16;38.83;;;25.57;;
15706;SDS011;7953;54.302;10.128;2024-03-02T01:25:44;40.47;;;27.03;;
15706;SDS011;7953;54.302;10.128;2024-03-02T01:28:12;45.40;;;25.63;;
15706;SDS011;7953;54.302;10.128;2024-03-02T01:30:39;37.13;;;25.73;;
15706;SDS011;7953;54.302;10.128;2024-03-02T01:33:06;40.93;;;25.40;;
15706;SDS011;7953;54.302;10.128;2024-03-02T01:35:33;37.33;;;24.63;;
15706;SDS011;7953;54.302;10.128;2024-03-02T01:38:01;41.93;;;25.57;;
15706;SDS011;7953;54.302;10.128;2024-03-02T01:40:28;41.53;;;26.20;;
15706;SDS011;7953;54.302;10.128;2024-03-02T01:42:55;41.13;;;26.07;;
15706;SDS011;7953;54.302;10.128;2024-03-02T01:45:24;40.47;;;26.20;;
15706;SDS011;7953;54.302;10.128;2024-03-02T01:47:51;36.10;;;24.27;;
15706;SDS011;7953;54.302;10.128;2024-03-02T01:50:24;39.57;;;24.67;;
15706;SDS011;7953;54.302;10.128;2024-03-02T01:52:52;42.27;;;25.43;;
15706;SDS011;7953;54.302;10.128;2024-03-02T01:55:19;41.73;;;25.97;;
15706;SDS011;7953;54.302;10.128;2024-03-02T01:57:46;37.73;;;25.33;;
15706;SDS011;7953;54.302;10.128;2024-03-02T02:00:14;38.40;;;24.20;;
15706;SDS011;7953;54.302;10.128;2024-03-02T02:02:43;39.77;;;26.67;;
15706;SDS011;7953;54.302;10.128;2024-03-02T02:05:10;42.53;;;26.03;;
15706;SDS011;7953;54.302;10.128;2024-03-02T02:07:37;40.73;;;26.97;;
15706;SDS011;7953;54.302;10.128;2024-03-02T02:10:04;44.47;;;27.40;;
15706;SDS011;7953;54.302;10.128;2024-03-02T02:12:32;37.07;;;23.87;;
15706;SDS011;7953;54.302;10.128;2024-03-02T02:14:59;42.27;;;27.03;;
15706;SDS011;7953;54.302;10.128;2024-03-02T02:17:26;38.77;;;26.07;;
15706;SDS011;7953;54.302;10.128;2024-03-02T02:19:54;41.00;;;27.17;;
15706;SDS011;7953;54.302;10.128;2024-03-02T02:22:22;40.50;;;26.20;;
15706;SDS011;7953;54.302;10.128;2024-03-02T02:24:49;44.47;;;27.10;;
15706;SDS011;7953;54.302;10.128;2024-03-02T02:27:16;40.30;;;26.60;;
15706;SDS011;7953;54.302;10.128;2024-03-02T02:29:43;45.03;;;28.33;;
15706;SDS011;7953;54.302;10.128;2024-03-02T02:32:10;41.70;;;28.33;;
15706;SDS011;7953;54.302;10.128;2024-03-02T02:34:36;42.83;;;26.90;;
15706;SDS011;7953;54.302;10.128;2024-03-02T02:37:03;44.37;;;27.23;;
15706;SDS011;7953;54.302;10.128;2024-03-02T02:39:32;39.87;;;25.97;;
15706;SDS011;7953;54.302;10.128;2024-03-02T02:41:59;46.30;;;28.03;;
15706;SDS011;7953;54.302;10.128;2024-03-02T02:44:27;47.30;;;28.70;;
15706;SDS011;7953;54.302;10.128;2024-03-02T02:46:54;44.00;;;27.43;;
15706;SDS011;7953;54.302;10.128;2024-03-02T02:49:21;44.80;;;27.63;;
15706;SDS011;7953;54.302;10.128;2024-03-02T02:51:48;47.03;;;28.87;;
15706;SDS011;7953;54.302;10.128;2024-03-02T02:54:15;44.07;;;28.10;;
15706;SDS011;7953;54.302;10.128;2024-03-02T02:56:43;46.23;;;27.83;;
15706;SDS011;7953;54.302;10.128;2024-03-02T02:59:10;42.50;;;27.53;;
15706;SDS011;7953;54.302;10.128;2024-03-02T03:01:37;47.30;;;28.43;;
15706;SDS011;7953;54.302;10.128;2024-03-02T03:04:04;45.90;;;28.80;;
15706;SDS011;7953;54.302;10.128;2024-03-02T03:06:31;51.33;;;30.10;;
15706;SDS011;7953;54.302;10.128;2024-03-02T03:08:58;48.30;;;29.67;;
15706;SDS011;7953;54.302;10.128;2024-03-02T03:11:25;47.77;;;29.33;;
15706;SDS011;7953;54.302;10.128;2024-03-02T03:13:54;52.13;;;30.33;;
15706;SDS011;7953;54.302;10.128;2024-03-02T03:16:21;44.67;;;27.87;;
15706;SDS011;7953;54.302;10.128;2024-03-02T03:18:48;45.13;;;28.47;;
15706;SDS011;7953;54.302;10.128;2024-03-02T03:21:16;41.40;;;28.93;;
15706;SDS011;7953;54.302;10.128;2024-03-02T03:23:43;48.87;;;30.17;;
15706;SDS011;7953;54.302;10.128;2024-03-02T03:26:10;43.57;;;27.63;;
15706;SDS011;7953;54.302;10.128;2024-03-02T03:28:37;44.63;;;28.40;;
15706;SDS011;7953;54.302;10.128;2024-03-02T03:31:05;47.30;;;29.83;;
15706;SDS011;7953;54.302;10.128;2024-03-02T03:33:32;54.90;;;28.43;;
15706;SDS011;7953;54.302;10.128;2024-03-02T03:35:59;46.27;;;29.63;;
15706;SDS011;7953;54.302;10.128;2024-03-02T03:38:28;47.83;;;29.60;;
15706;SDS011;7953;54.302;10.128;2024-03-02T03:40:55;50.33;;;30.07;;
15706;SDS011;7953;54.302;10.128;2024-03-02T03:43:22;43.70;;;27.73;;
15706;SDS011;7953;54.302;10.128;2024-03-02T03:45:49;48.70;;;29.33;;
15706;SDS011;7953;54.302;10.128;2024-03-02T03:48:17;48.93;;;29.57;;
15706;SDS011;7953;54.302;10.128;2024-03-02T03:50:44;46.50;;;29.13;;
15706;SDS011;7953;54.302;10.128;2024-03-02T03:53:11;45.57;;;28.57;;
15706;SDS011;7953;54.302;10.128;2024-03-02T03:55:39;46.03;;;30.00;;
15706;SDS011;7953;54.302;10.128;2024-03-02T03:58:06;47.03;;;29.93;;
15706;SDS011;7953;54.302;10.128;2024-03-02T04:00:33;44.27;;;29.93;;
15706;SDS011;7953;54.302;10.128;2024-03-02T04:03:00;43.63;;;28.30;;
15706;SDS011;7953;54.302;10.128;2024-03-02T04:05:28;46.70;;;29.30;;
15706;SDS011;7953;54.302;10.128;2024-03-02T04:07:55;52.23;;;30.47;;
15706;SDS011;7953;54.302;10.128;2024-03-02T04:10:22;47.87;;;30.57;;
15706;SDS011;7953;54.302;10.128;2024-03-02T04:12:49;46.93;;;29.77;;
15706;SDS011;7953;54.302;10.128;2024-03-02T04:15:16;45.07;;;29.37;;
15706;SDS011;7953;54.302;10.128;2024-03-02T04:17:44;42.87;;;29.37;;
15706;SDS011;7953;54.302;10.128;2024-03-02T04:20:11;47.60;;;29.47;;
15706;SDS011;7953;54.302;10.128;2024-03-02T04:22:40;47.40;;;27.73;;
15706;SDS011;7953;54.302;10.128;2024-03-02T04:25:07;44.70;;;28.07;;
15706;SDS011;7953;54.302;10.128;2024-03-02T04:27:34;46.00;;;27.67;;
15706;SDS011;7953;54.302;10.128;2024-03-02T04:30:01;45.17;;;29.33;;
15706;SDS011;7953;54.302;10.128;2024-03-02T04:32:30;44.90;;;28.93;;
15706;SDS011;7953;54.302;10.128;2024-03-02T04:34:57;43.80;;;28.20;;
15706;SDS011;7953;54.302;10.128;2024-03-02T04:37:24;49.87;;;29.27;;
15706;SDS011;7953;54.302;10.128;2024-03-02T04:39:52;45.93;;;27.73;;
15706;SDS011;7953;54.302;10.128;2024-03-02T04:42:19;44.30;;;28.83;;
15706;SDS011;7953;54.302;10.128;2024-03-02T04:44:46;44.97;;;28.77;;
15706;SDS011;7953;54.302;10.128;2024-03-02T04:47:12;43.20;;;27.67;;
15706;SDS011;7953;54.302;10.128;2024-03-02T04:49:39;43.37;;;29.53;;
15706;SDS011;7953;54.302;10.128;2024-03-02T04:52:06;46.80;;;29.30;;
15706;SDS011;7953;54.302;10.128;2024-03-02T04:54:33;44.53;;;29.00;;
15706;SDS011;7953;54.302;10.128;2024-03-02T04:57:22;44.83;;;27.97;;
15706;SDS011;7953;54.302;10.128;2024-03-02T04:59:49;44.13;;;28.57;;
15706;SDS011;7953;54.302;10.128;2024-03-02T05:02:16;44.63;;;28.90;;
15706;SDS011;7953;54.302;10.128;2024-03-02T05:04:43;42.53;;;28.37;;
15706;SDS011;7953;54.302;10.128;2024-03-02T05:07:09;50.37;;;32.13;;
15706;SDS011;7953;54.302;10.128;2024-03-02T05:09:36;49.30;;;31.03;;
15706;SDS011;7953;54.302;10.128;2024-03-02T05:12:03;43.13;;;29.83;;
15706;SDS011;7953;54.302;10.128;2024-03-02T05:15:01;47.13;;;29.37;;
15706;SDS011;7953;54.302;10.128;2024-03-02T05:17:28;46.30;;;29.50;;
15706;SDS011;7953;54.302;10.128;2024-03-02T05:19:55;44.03;;;29.03;;
15706;SDS011;7953;54.302;10.128;2024-03-02T05:22:22;46.00;;;28.40;;
15706;SDS011;7953;54.302;10.128;2024-03-02T05:24:49;46.57;;;29.53;;
15706;SDS011;7953;54.302;10.128;2024-03-02T05:27:16;46.67;;;29.97;;
15706;SDS011;7953;54.302;10.128;2024-03-02T05:29:43;45.33;;;28.70;;
15706;SDS011;7953;54.302;10.128;2024-03-02T05:32:11;45.50;;;29.77;;
15706;SDS011;7953;54.302;10.128;2024-03-02T05:34:38;47.83;;;29.37;;
15706;SDS011;7953;54.302;10.128;2024-03-02T05:37:04;50.50;;;30.47;;
15706;SDS011;7953;54.302;10.128;2024-03-02T05:39:32;49.10;;;28.97;;
15706;SDS011;7953;54.302;10.128;2024-03-02T05:41:58;47.80;;;30.67;;
15706;SDS011;7953;54.302;10.128;2024-03-02T05:44:25;50.97;;;30.70;;
15706;SDS011;7953;54.302;10.128;2024-03-02T05:46:52;50.83;;;30.27;;
15706;SDS011;7953;54.302;10.128;2024-03-02T05:49:20;44.87;;;30.03;;
15706;SDS011;7953;54.302;10.128;2024-03-02T05:51:47;50.33;;;29.80;;
15706;SDS011;7953;54.302;10.128;2024-03-02T05:54:14;49.93;;;31.40;;
15706;SDS011;7953;54.302;10.128;2024-03-02T05:56:41;56.03;;;35.17;;
15706;SDS011;7953;54.302;10.128;2024-03-02T05:59:08;77.53;;;43.93;;
15706;SDS011;7953;54.302;10.128;2024-03-02T06:01:37;129.30;;;62.37;;
15706;SDS011;7953;54.302;10.128;2024-03-02T06:04:04;94.50;;;47.80;;
15706;SDS011;7953;54.302;10.128;2024-03-02T06:06:33;56.27;;;35.37;;
15706;SDS011;7953;54.302;10.128;2024-03-02T06:09:00;47.40;;;31.33;;
15706;SDS011;7953;54.302;10.128;2024-03-02T06:11:27;52.03;;;32.17;;
15706;SDS011;7953;54.302;10.128;2024-03-02T06:13:54;50.27;;;32.03;;
15706;SDS011;7953;54.302;10.128;2024-03-02T06:16:21;51.80;;;32.20;;
15706;SDS011;7953;54.302;10.128;2024-03-02T06:18:49;44.77;;;29.47;;
15706;SDS011;7953;54.302;10.128;2024-03-02T06:21:16;47.10;;;29.50;;
15706;SDS011;7953;54.302;10.128;2024-03-02T06:23:45;47.73;;;29.03;;
15706;SDS011;7953;54.302;10.128;2024-03-02T06:26:12;54.30;;;31.00;;
15706;SDS011;7953;54.302;10.128;2024-03-02T06:28:39;52.17;;;31.10;;
15706;SDS011;7953;54.302;10.128;2024-03-02T06:31:06;48.63;;;29.87;;
15706;SDS011;7953;54.302;10.128;2024-03-02T06:33:33;43.47;;;28.90;;
15706;SDS011;7953;54.302;10.128;2024-03-02T06:36:00;48.93;;;30.70;;
15706;SDS011;7953;54.302;10.128;2024-03-02T06:38:27;45.63;;;29.83;;
15706;SDS011;7953;54.302;10.128;2024-03-02T06:40:55;49.10;;;29.90;;
15706;SDS011;7953;54.302;10.128;2024-03-02T06:43:22;48.37;;;29.77;;
15706;SDS011;7953;54.302;10.128;2024-03-02T06:45:49;46.93;;;30.07;;
15706;SDS011;7953;54.302;10.128;2024-03-02T06:48:16;46.57;;;27.77;;
15706;SDS011;7953;54.302;10.128;2024-03-02T06:50:45;50.00;;;30.83;;
15706;SDS011;7953;54.302;10.128;2024-03-02T06:53:12;47.67;;;29.87;;
15706;SDS011;7953;54.302;10.128;2024-03-02T06:55:42;47.80;;;29.20;;
15706;SDS011;7953;54.302;10.128;2024-03-02T06:58:10;46.90;;;30.17;;
15706;SDS011;7953;54.302;10.128;2024-03-02T07:00:37;53.87;;;33.03;;
15706;SDS011;7953;54.302;10.128;2024-03-02T07:03:04;47.50;;;31.97;;
15706;SDS011;7953;54.302;10.128;2024-03-02T07:05:31;45.50;;;30.17;;
15706;SDS011;7953;54.302;10.128;2024-03-02T07:07:58;49.70;;;31.73;;
15706;SDS011;7953;54.302;10.128;2024-03-02T07:10:26;44.00;;;28.30;;
15706;SDS011;7953;54.302;10.128;2024-03-02T07:12:53;41.77;;;28.67;;
15706;SDS011;7953;54.302;10.128;2024-03-02T07:15:21;48.83;;;32.43;;
15706;SDS011;7953;54.302;10.128;2024-03-02T07:18:02;46.67;;;31.30;;
15706;SDS011;7953;54.302;10.128;2024-03-02T07:20:29;46.37;;;30.27;;
15706;SDS011;7953;54.302;10.128;2024-03-02T07:22:56;46.23;;;30.97;;
15706;SDS011;7953;54.302;10.128;2024-03-02T07:25:23;47.67;;;32.90;;
15706;SDS011;7953;54.302;10.128;2024-03-02T07:27:50;45.27;;;29.87;;
15706;SDS011;7953;54.302;10.128;2024-03-02T07:30:18;46.73;;;29.97;;
15706;SDS011;7953;54.302;10.128;2024-03-02T07:32:46;42.23;;;28.03;;
15706;SDS011;7953;54.302;10.128;2024-03-02T07:35:15;41.03;;;27.83;;
15706;SDS011;7953;54.302;10.128;2024-03-02T07:37:43;41.90;;;27.67;;
15706;SDS011;7953;54.302;10.128;2024-03-02T07:40:10;41.90;;;26.90;;
15706;SDS011;7953;54.302;10.128;2024-03-02T07:42:38;40.20;;;27.77;;
15706;SDS011;7953;54.302;10.128;2024-03-02T07:45:06;47.37;;;32.00;;
15706;SDS011;7953;54.302;10.128;2024-03-02T07:47:33;47.33;;;31.93;;
15706;SDS011;7953;54.302;10.128;2024-03-02T07:50:01;47.87;;;32.50;;
15706;SDS011;7953;54.302;10.128;2024-03-02T07:52:31;45.23;;;30.60;;
15706;SDS011;7953;54.302;10.128;2024-03-02T07:54:58;36.70;;;26.27;;
15706;SDS011;7953;54.302;10.128;2024-03-02T07:57:25;40.90;;;28.63;;
15706;SDS011;7953;54.302;10.128;2024-03-02T07:59:52;38.10;;;27.17;;
15706;SDS011;7953;54.302;10.128;2024-03-02T08:02:19;43.23;;;30.83;;
15706;SDS011;7953;54.302;10.128;2024-03-02T08:04:47;47.67;;;34.13;;
15706;SDS011;7953;54.302;10.128;2024-03-02T08:07:16;49.30;;;33.20;;
15706;SDS011;7953;54.302;10.128;2024-03-02T08:09:42;50.23;;;34.57;;
15706;SDS011;7953;54.302;10.128;2024-03-02T08:12:09;56.10;;;40.47;;
15706;SDS011;7953;54.302;10.128;2024-03-02T08:14:36;36.63;;;25.23;;
15706;SDS011;7953;54.302;10.128;2024-03-02T08:17:03;36.40;;;25.20;;
15706;SDS011;7953;54.302;10.128;2024-03-02T08:19:34;34.67;;;25.77;;
15706;SDS011;7953;54.302;10.128;2024-03-02T08:22:02;37.60;;;25.73;;
15706;SDS011;7953;54.302;10.128;2024-03-02T08:24:31;35.53;;;24.43;;
15706;SDS011;7953;54.302;10.128;2024-03-02T08:26:58;36.20;;;24.47;;
15706;SDS011;7953;54.302;10.128;2024-03-02T08:29:26;41.33;;;25.37;;
15706;SDS011;7953;54.302;10.128;2024-03-02T08:31:53;35.93;;;23.67;;
15706;SDS011;7953;54.302;10.128;2024-03-02T08:34:20;34.40;;;25.47;;
15706;SDS011;7953;54.302;10.128;2024-03-02T08:36:47;40.57;;;29.20;;
15706;SDS011;7953;54.302;10.128;2024-03-02T08:39:14;43.30;;;29.80;;
15706;SDS011;7953;54.302;10.128;2024-03-02T08:41:42;37.80;;;28.23;;
15706;SDS011;7953;54.302;10.128;2024-03-02T08:44:11;45.03;;;28.57;;
15706;SDS011;7953;54.302;10.128;2024-03-02T08:46:38;38.60;;;26.07;;
15706;SDS011;7953;54.302;10.128;2024-03-02T08:49:06;41.00;;;25.83;;
15706;SDS011;7953;54.302;10.128;2024-03-02T08:51:33;34.77;;;22.77;;
15706;SDS011;7953;54.302;10.128;2024-03-02T08:53:59;33.53;;;22.87;;
15706;SDS011;7953;54.302;10.128;2024-03-02T08:56:26;34.40;;;23.43;;
15706;SDS011;7953;54.302;10.128;2024-03-02T08:58:54;36.13;;;26.23;;
15706;SDS011;7953;54.302;10.128;2024-03-02T09:01:21;36.17;;;24.17;;
15706;SDS011;7953;54.302;10.128;2024-03-02T09:03:48;37.10;;;23.60;;
15706;SDS011;7953;54.302;10.128;2024-03-02T09:06:15;35.33;;;24.27;;
15706;SDS011;7953;54.302;10.128;2024-03-02T09:08:43;35.17;;;22.77;;
15706;SDS011;7953;54.302;10.128;2024-03-02T09:11:10;31.00;;;22.37;;
15706;SDS011;7953;54.302;10.128;2024-03-02T09:13:37;34.20;;;24.20;;
15706;SDS011;7953;54.302;10.128;2024-03-02T09:16:06;31.57;;;24.50;;
15706;SDS011;7953;54.302;10.128;2024-03-02T09:18:35;33.63;;;24.73;;
15706;SDS011;7953;54.302;10.128;2024-03-02T09:21:03;33.73;;;24.13;;
15706;SDS011;7953;54.302;10.128;2024-03-02T09:23:30;30.23;;;21.70;;
15706;SDS011;7953;54.302;10.128;2024-03-02T09:25:57;33.00;;;21.40;;
15706;SDS011;7953;54.302;10.128;2024-03-02T09:28:24;27.00;;;18.33;;
15706;SDS011;7953;54.302;10.128;2024-03-02T09:30:51;25.73;;;19.27;;
15706;SDS011;7953;54.302;10.128;2024-03-02T09:33:19;26.63;;;19.23;;
15706;SDS011;7953;54.302;10.128;2024-03-02T09:35:46;24.43;;;18.27;;
15706;SDS011;7953;54.302;10.128;2024-03-02T09:38:14;24.90;;;16.90;;
15706;SDS011;7953;54.302;10.128;2024-03-02T09:40:41;27.67;;;17.43;;
15706;SDS011;7953;54.302;10.128;2024-03-02T09:43:09;23.07;;;17.77;;
15706;SDS011;7953;54.302;10.128;2024-03-02T09:45:36;25.90;;;17.40;;
15706;SDS011;7953;54.302;10.128;2024-03-02T09:48:04;23.60;;;16.63;;
15706;SDS011;7953;54.302;10.128;2024-03-02T09:50:33;21.40;;;16.63;;
15706;SDS011;7953;54.302;10.128;2024-03-02T09:52:59;22.03;;;17.10;;
15706;SDS011;7953;54.302;10.128;2024-03-02T09:55:27;22.43;;;15.60;;
15706;SDS011;7953;54.302;10.128;2024-03-02T09:57:54;23.17;;;15.63;;
15706;SDS011;7953;54.302;10.128;2024-03-02T10:00:21;23.97;;;16.57;;
15706;SDS011;7953;54.302;10.128;2024-03-02T10:02:48;22.80;;;16.53;;
15706;SDS011;7953;54.302;10.128;2024-03-02T10:05:23;23.47;;;16.73;;
15706;SDS011;7953;54.302;10.128;2024-03-02T10:07:57;25.23;;;17.70;;
15706;SDS011;7953;54.302;10.128;2024-03-02T10:10:26;22.00;;;16.13;;
15706;SDS011;7953;54.302;10.128;2024-03-02T10:13:03;23.57;;;17.90;;
15706;SDS011;7953;54.302;10.128;2024-03-02T10:15:31;20.87;;;16.20;;
15706;SDS011;7953;54.302;10.128;2024-03-02T10:17:58;26.07;;;16.80;;
15706;SDS011;7953;54.302;10.128;2024-03-02T10:20:26;22.20;;;16.27;;
15706;SDS011;7953;54.302;10.128;2024-03-02T10:22:54;21.63;;;16.90;;
15706;SDS011;7953;54.302;10.128;2024-03-02T10:25:32;22.47;;;17.27;;
15706;SDS011;7953;54.302;10.128;2024-03-02T10:27:59;24.37;;;17.90;;
15706;SDS011;7953;54.302;10.128;2024-03-02T10:30:27;25.03;;;17.33;;
15706;SDS011;7953;54.302;10.128;2024-03-02T10:32:54;28.20;;;16.73;;
15706;SDS011;7953;54.302;10.128;2024-03-02T10:35:21;22.63;;;16.20;;
15706;SDS011;7953;54.302;10.128;2024-03-02T10:37:49;22.27;;;16.33;;
15706;SDS011;7953;54.302;10.128;2024-03-02T10:40:17;22.50;;;16.47;;
15706;SDS011;7953;54.302;10.128;2024-03-02T10:42:46;22.80;;;16.33;;
15706;SDS011;7953;54.302;10.128;2024-03-02T10:45:14;22.40;;;15.73;;
15706;SDS011;7953;54.302;10.128;2024-03-02T10:47:42;20.00;;;15.80;;
15706;SDS011;7953;54.302;10.128;2024-03-02T10:50:09;22.17;;;16.40;;
15706;SDS011;7953;54.302;10.128;2024-03-02T10:52:36;20.63;;;16.40;;
15706;SDS011;7953;54.302;10.128;2024-03-02T10:55:04;22.07;;;17.13;;
15706;SDS011;7953;54.302;10.128;2024-03-02T10:57:36;21.87;;;14.93;;
15706;SDS011;7953;54.302;10.128;2024-03-02T11:00:11;20.37;;;16.40;;
15706;SDS011;7953;54.302;10.128;2024-03-02T11:02:42;20.90;;;16.13;;
15706;SDS011;7953;54.302;10.128;2024-03-02T11:05:13;22.20;;;16.50;;
15706;SDS011;7953;54.302;10.128;2024-03-02T11:07:50;21.17;;;16.60;;
15706;SDS011;7953;54.302;10.128;2024-03-02T11:10:19;20.60;;;16.60;;
15706;SDS011;7953;54.302;10.128;2024-03-02T11:12:48;22.67;;;17.03;;
15706;SDS011;7953;54.302;10.128;2024-03-02T11:15:20;20.03;;;16.00;;
15706;SDS011;7953;54.302;10.128;2024-03-02T11:17:51;22.13;;;15.33;;
15706;SDS011;7953;54.302;10.128;2024-03-02T11:20:19;22.23;;;15.07;;
15706;SDS011;7953;54.302;10.128;2024-03-02T11:22:46;21.80;;;16.33;;
15706;SDS011;7953;54.302;10.128;2024-03-02T11:28:01;20.20;;;14.70;;
15706;SDS011;7953;54.302;10.128;2024-03-02T11:33:25;20.53;;;16.03;;
15706;SDS011;7953;54.302;10.128;2024-03-02T11:35:56;20.13;;;15.87;;
15706;SDS011;7953;54.302;10.128;2024-03-02T11:38:27;26.80;;;16.60;;
15706;SDS011;7953;54.302;10.128;2024-03-02T11:40:56;24.87;;;17.40;;
15706;SDS011;7953;54.302;10.128;2024-03-02T11:43:23;21.10;;;16.53;;
15706;SDS011;7953;54.302;10.128;2024-03-02T11:45:57;20.77;;;14.87;;
15706;SDS011;7953;54.302;10.128;2024-03-02T11:48:25;19.03;;;15.40;;
15706;SDS011;7953;54.302;10.128;2024-03-02T11:50:51;22.57;;;15.13;;
15706;SDS011;7953;54.302;10.128;2024-03-02T11:53:19;21.03;;;15.60;;
15706;SDS011;7953;54.302;10.128;2024-03-02T11:55:47;18.97;;;15.20;;
15706;SDS011;7953;54.302;10.128;2024-03-02T11:58:15;23.00;;;17.37;;
15706;SDS011;7953;54.302;10.128;2024-03-02T12:00:45;19.37;;;15.23;;
15706;SDS011;7953;54.302;10.128;2024-03-02T12:03:13;21.37;;;14.83;;
15706;SDS011;7953;54.302;10.128;2024-03-02T12:05:41;24.33;;;17.53;;
15706;SDS011;7953;54.302;10.128;2024-03-02T12:08:08;20.90;;;15.90;;
15706;SDS011;7953;54.302;10.128;2024-03-02T12:10:37;20.83;;;16.13;;
15706;SDS011;7953;54.302;10.128;2024-03-02T12:13:04;22.97;;;16.03;;
15706;SDS011;7953;54.302;10.128;2024-03-02T12:15:33;23.27;;;16.50;;
15706;SDS011;7953;54.302;10.128;2024-03-02T12:18:02;22.23;;;15.40;;
15706;SDS011;7953;54.302;10.128;2024-03-02T12:20:31;23.50;;;15.97;;
15706;SDS011;7953;54.302;10.128;2024-03-02T12:22:59;21.13;;;16.40;;
15706;SDS011;7953;54.302;10.128;2024-03-02T12:25:27;20.37;;;16.23;;
15706;SDS011;7953;54.302;10.128;2024-03-02T12:27:56;19.70;;;14.13;;
15706;SDS011;7953;54.302;10.128;2024-03-02T12:30:24;20.20;;;15.80;;
15706;SDS011;7953;54.302;10.128;2024-03-02T12:32:52;19.50;;;15.43;;
15706;SDS011;7953;54.302;10.128;2024-03-02T12:35:20;20.67;;;14.73;;
15706;SDS011;7953;54.302;10.128;2024-03-02T12:37:49;19.53;;;14.97;;
15706;SDS011;7953;54.302;10.128;2024-03-02T12:40:18;20.97;;;15.03;;
15706;SDS011;7953;54.302;10.128;2024-03-02T12:42:47;17.43;;;14.23;;
15706;SDS011;7953;54.302;10.128;2024-03-02T12:45:14;21.87;;;15.90;;
15706;SDS011;7953;54.302;10.128;2024-03-02T12:47:48;19.53;;;15.07;;
15706;SDS011;7953;54.302;10.128;2024-03-02T12:50:15;21.90;;;16.10;;
15706;SDS011;7953;54.302;10.128;2024-03-02T12:52:42;19.93;;;14.93;;
15706;SDS011;7953;54.302;10.128;2024-03-02T12:55:11;21.50;;;16.47;;
15706;SDS011;7953;54.302;10.128;2024-03-02T12:57:39;21.83;;;15.97;;
15706;SDS011;7953;54.302;10.128;2024-03-02T13:00:06;21.60;;;17.63;;
15706;SDS011;7953;54.302;10.128;2024-03-02T13:02:34;24.77;;;19.13;;
15706;SDS011;7953;54.302;10.128;2024-03-02T13:05:02;21.30;;;16.93;;
15706;SDS011;7953;54.302;10.128;2024-03-02T13:07:29;22.53;;;17.60;;
15706;SDS011;7953;54.302;10.128;2024-03-02T13:09:57;24.53;;;18.07;;
15706;SDS011;7953;54.302;10.128;2024-03-02T13:12:25;24.00;;;17.77;;
15706;SDS011;7953;54.302;10.128;2024-03-02T13:14:52;22.87;;;17.57;;
15706;SDS011;7953;54.302;10.128;2024-03-02T13:17:19;27.00;;;20.03;;
15706;SDS011;7953;54.302;10.128;2024-03-02T13:19:53;26.57;;;18.87;;
15706;SDS011;7953;54.302;10.128;2024-03-02T13:22:20;25.70;;;19.93;;
15706;SDS011;7953;54.302;10.128;2024-03-02T13:24:47;24.63;;;19.63;;
15706;SDS011;7953;54.302;10.128;2024-03-02T13:27:14;27.80;;;18.83;;
15706;SDS011;7953;54.302;10.128;2024-03-02T13:29:42;26.07;;;18.13;;
15706;SDS011;7953;54.302;10.128;2024-03-02T13:32:09;23.43;;;17.87;;
15706;SDS011;7953;54.302;10.128;2024-03-02T13:34:36;21.93;;;16.57;;
15706;SDS011;7953;54.302;10.128;2024-03-02T13:37:03;22.67;;;16.53;;
15706;SDS011;7953;54.302;10.128;2024-03-02T13:39:30;21.50;;;15.57;;
15706;SDS011;7953;54.302;10.128;2024-03-02T13:42:00;24.17;;;17.43;;
15706;SDS011;7953;54.302;10.128;2024-03-02T13:44:30;26.43;;;17.57;;
15706;SDS011;7953;54.302;10.128;2024-03-02T13:47:00;20.43;;;15.90;;
15706;SDS011;7953;54.302;10.128;2024-03-02T13:49:27;21.40;;;16.80;;
15706;SDS011;7953;54.302;10.128;2024-03-02T13:51:58;21.27;;;16.90;;
15706;SDS011;7953;54.302;10.128;2024-03-02T13:54:28;21.13;;;16.60;;
15706;SDS011;7953;54.302;10.128;2024-03-02T13:56:55;24.97;;;17.63;;
15706;SDS011;7953;54.302;10.128;2024-03-02T13:59:23;21.07;;;15.67;;
15706;SDS011;7953;54.302;10.128;2024-03-02T14:01:51;23.10;;;18.33;;
15706;SDS011;7953;54.302;10.128;2024-03-02T14:04:19;22.30;;;17.00;;
15706;SDS011;7953;54.302;10.128;2024-03-02T14:06:46;21.17;;;15.93;;
15706;SDS011;7953;54.302;10.128;2024-03-02T14:09:13;20.57;;;15.40;;
15706;SDS011;7953;54.302;10.128;2024-03-02T14:11:40;20.67;;;15.73;;
15706;SDS011;7953;54.302;10.128;2024-03-02T14:14:07;19.60;;;14.90;;
15706;SDS011;7953;54.302;10.128;2024-03-02T14:16:33;19.97;;;14.70;;
15706;SDS011;7953;54.302;10.128;2024-03-02T14:19:01;18.60;;;14.47;;
15706;SDS011;7953;54.302;10.128;2024-03-02T14:21:30;21.57;;;16.07;;
15706;SDS011;7953;54.302;10.128;2024-03-02T14:23:57;18.50;;;13.80;;
15706;SDS011;7953;54.302;10.128;2024-03-02T14:26:24;20.47;;;14.80;;
15706;SDS011;7953;54.302;10.128;2024-03-02T14:28:51;22.03;;;14.63;;
15706;SDS011;7953;54.302;10.128;2024-03-02T14:31:18;21.13;;;14.70;;
15706;SDS011;7953;54.302;10.128;2024-03-02T14:33:45;20.40;;;14.57;;